CheckWX is a tool to help pilots better visualize weather data.  It is not intended as a substitute for an official pre-flight weather briefing.

18:31:06 UTC

KELM METAR
Elmira / Corning Regional Airport
Elmira/Corning, New York, USA
Current

38 mins ago

KELM 221753Z VRB06KT 10SM BKN040 03/M06 A3038 RMK AO2 SLP298 T00331061 10033 21028 58005
Observed
Feb-22 @ 17:53 UTC
Wind
  • Variable at 6 KTS
Visibility
10 SM
Flight Rules
VFR
Cloud Levels
  • Broken at 4,000' AGL
Temperature
C / 37°F
Dewpoint
-6°C / 21°F
Humidity
52%
Altimeter
30.38" Hg
Pressure
1029.8 hPa
Previous

2 hours ago

KELM 221653Z 34009KT 10SM BKN034 02/M06 A3040 RMK AO2 SLP305 T00171061
Observed
Feb-22 @ 16:53 UTC
Wind
  • 340° at 9 KTS
Visibility
10 SM
Flight Rules
VFR
Cloud Levels
  • Broken at 3,400' AGL
Temperature
C / 36°F
Dewpoint
-6°C / 21°F
Humidity
56%
Altimeter
30.4" Hg
Pressure
1030.5 hPa
Previous

3 hours ago

KELM 221553Z 01005KT 10SM OVC033 01/M06 A3039 RMK AO2 SLP301 T00111061
Observed
Feb-22 @ 15:53 UTC
Wind
  • 010° at 5 KTS
Visibility
10 SM
Flight Rules
VFR
Cloud Levels
  • Overcast at 3,300' AGL
Temperature
C / 34°F
Dewpoint
-6°C / 21°F
Humidity
60%
Altimeter
30.39" Hg
Pressure
1030.1 hPa